VIH weather

Rolla National Airport
Rolla/Vichy, Missouri, United States

Public forecast

Using degrees Fahrenheit for public forecast. Weather courtesy of forecast.io.

Current aviation weather report (METAR) for Rolla National Airport

Retrieved 2020/08/07 11:53 UTC (8 minutes ago):

KVIH 071153Z AUTO 13009KT 10SM FEW065 18/15 A3012 RMK AO2 SLP190 T01780150 10200 20172 51006

Closest aviation forecast (TAF) to Rolla National Airport

Closest forecast is Columbia Regional Airport, 46.6 nm (86.2 km) NNW. Retrieved 2020/08/07 12:22 UTC (0 seconds ago):

TAF KCOU 071120Z 0712/0812 14008KT P6SM FEW050 FM080000 15006KT P6SM FEW250